createdAt,value
2023-01-20T00:01:40.295Z,17.80
2023-01-20T00:04:08.204Z,18.27
2023-01-20T00:06:36.237Z,17.60
2023-01-20T00:09:04.864Z,19.40
2023-01-20T00:11:32.899Z,16.38
2023-01-20T00:14:02.691Z,19.52
2023-01-20T00:16:31.817Z,15.05
2023-01-20T00:18:59.803Z,20.13
2023-01-20T00:21:27.790Z,16.55
2023-01-20T00:23:55.908Z,18.90
2023-01-20T00:26:24.814Z,16.33
2023-01-20T00:28:54.979Z,14.68
2023-01-20T00:31:25.197Z,17.45
2023-01-20T00:33:53.759Z,16.85
2023-01-20T00:36:22.084Z,15.98
2023-01-20T00:38:49.967Z,15.27
2023-01-20T00:41:18.263Z,16.10
2023-01-20T00:43:46.182Z,19.60
2023-01-20T00:46:14.213Z,15.68
2023-01-20T00:48:43.604Z,16.77
2023-01-20T00:51:11.753Z,13.68
2023-01-20T00:53:39.685Z,14.93
2023-01-20T00:56:07.952Z,15.10
2023-01-20T00:58:35.848Z,15.18
2023-01-20T01:01:03.870Z,14.98
2023-01-20T01:03:31.880Z,12.82
2023-01-20T01:06:08.688Z,16.98
2023-01-20T01:08:36.555Z,14.48
2023-01-20T01:11:04.693Z,17.92
2023-01-20T01:13:32.610Z,12.95
2023-01-20T01:16:00.604Z,17.58
2023-01-20T01:18:28.509Z,14.18
2023-01-20T01:20:56.374Z,13.88
2023-01-20T01:23:25.650Z,14.10
2023-01-20T01:25:53.519Z,12.63
2023-01-20T01:28:21.358Z,15.73
2023-01-20T01:30:49.313Z,13.80
2023-01-20T01:33:17.188Z,16.02
2023-01-20T01:35:45.030Z,12.40
2023-01-20T01:38:12.880Z,14.57
2023-01-20T01:40:42.088Z,13.07
2023-01-20T01:43:14.326Z,14.82
2023-01-20T01:45:42.246Z,14.77
2023-01-20T01:48:10.819Z,12.38
2023-01-20T01:50:40.731Z,12.75
2023-01-20T01:53:08.729Z,13.05
2023-01-20T01:55:38.280Z,14.23
2023-01-20T01:58:07.725Z,13.70
2023-01-20T02:00:35.720Z,11.77
2023-01-20T02:03:03.648Z,12.32
2023-01-20T02:05:31.546Z,13.60
2023-01-20T02:08:00.466Z,14.20
2023-01-20T02:10:28.446Z,13.95
2023-01-20T02:12:56.332Z,12.82
2023-01-20T02:15:27.144Z,11.90
2023-01-20T02:18:03.450Z,13.60
2023-01-20T02:20:59.285Z,13.80
2023-01-20T02:23:42.831Z,15.07
2023-01-20T02:26:25.178Z,14.25
2023-01-20T02:29:13.827Z,13.55
2023-01-20T02:32:17.160Z,13.60
2023-01-20T02:34:47.085Z,12.32
2023-01-20T02:37:15.850Z,13.50
2023-01-20T02:40:05.794Z,12.40
2023-01-20T02:42:37.946Z,12.85
2023-01-20T02:45:10.087Z,13.98
2023-01-20T02:47:41.174Z,15.70
2023-01-20T02:50:10.400Z,14.43
2023-01-20T02:52:40.308Z,12.23
2023-01-20T02:55:09.647Z,11.85
2023-01-20T02:57:40.234Z,13.65
2023-01-20T03:00:10.676Z,11.98
2023-01-20T03:02:39.923Z,12.32
2023-01-20T03:05:09.565Z,12.30
2023-01-20T03:07:38.213Z,12.85
2023-01-20T03:10:07.720Z,12.95
2023-01-20T03:12:37.259Z,11.85
2023-01-20T03:15:05.810Z,11.15
2023-01-20T03:17:33.795Z,11.80
2023-01-20T03:20:03.096Z,13.35
2023-01-20T03:22:30.938Z,13.57
2023-01-20T03:24:59.352Z,12.55
2023-01-20T03:27:27.506Z,12.63
2023-01-20T03:29:55.371Z,13.68
2023-01-20T03:32:26.141Z,11.00
2023-01-20T03:34:54.832Z,12.18
2023-01-20T03:37:24.046Z,11.57
2023-01-20T03:39:52.106Z,12.77
2023-01-20T03:42:22.938Z,12.55
2023-01-20T03:45:00.491Z,11.40
2023-01-20T03:47:35.485Z,12.90
2023-01-20T03:50:07.548Z,11.63
2023-01-20T03:52:46.494Z,10.77
2023-01-20T03:55:16.592Z,11.40
2023-01-20T03:57:46.598Z,12.05
2023-01-20T04:00:15.172Z,11.80
2023-01-20T04:02:43.068Z,11.88
2023-01-20T04:05:10.981Z,11.35
2023-01-20T04:07:40.409Z,14.02
2023-01-20T04:10:11.121Z,13.05
2023-01-20T04:12:38.984Z,13.68
2023-01-20T04:15:08.254Z,12.15
2023-01-20T04:17:36.099Z,11.40
2023-01-20T04:20:11.944Z,11.82
2023-01-20T04:22:45.229Z,13.05
2023-01-20T04:25:16.026Z,11.82
2023-01-20T04:27:44.253Z,12.38
2023-01-20T04:30:14.066Z,12.35
2023-01-20T04:32:41.987Z,11.93
2023-01-20T04:35:11.018Z,11.45
2023-01-20T04:37:38.897Z,12.38
2023-01-20T04:40:09.538Z,11.88
2023-01-20T04:42:37.418Z,11.80
2023-01-20T04:45:05.952Z,10.98
2023-01-20T04:47:33.887Z,11.73
2023-01-20T04:50:01.718Z,11.50
2023-01-20T04:52:29.618Z,13.13
2023-01-20T04:54:57.453Z,11.20
2023-01-20T04:57:26.629Z,13.27
2023-01-20T04:59:54.539Z,11.15
2023-01-20T05:02:22.477Z,10.48
2023-01-20T05:04:50.439Z,13.65
2023-01-20T05:07:18.330Z,10.85
2023-01-20T05:09:46.304Z,12.80
2023-01-20T05:12:14.280Z,12.38
2023-01-20T05:14:43.502Z,11.48
2023-01-20T05:17:11.336Z,13.02
2023-01-20T05:19:40.851Z,11.27
2023-01-20T05:22:08.779Z,11.35
2023-01-20T05:24:36.682Z,13.05
2023-01-20T05:27:04.718Z,13.50
2023-01-20T05:29:32.604Z,15.57
2023-01-20T05:32:01.833Z,12.50
2023-01-20T05:34:29.712Z,12.63
2023-01-20T05:36:57.544Z,11.63
2023-01-20T05:39:25.448Z,11.77
2023-01-20T05:41:53.346Z,10.77
2023-01-20T05:44:21.209Z,13.88
2023-01-20T05:46:49.089Z,12.07
2023-01-20T05:49:18.331Z,12.98
2023-01-20T05:51:46.252Z,12.73
2023-01-20T05:54:14.282Z,11.05
2023-01-20T05:56:42.176Z,12.55
2023-01-20T05:59:10.065Z,12.13
2023-01-20T06:01:38.003Z,12.73
2023-01-20T06:04:06.191Z,12.93
2023-01-20T06:06:35.427Z,11.30
2023-01-20T06:09:03.300Z,11.85
2023-01-20T06:11:31.172Z,11.95
2023-01-20T06:13:59.021Z,11.10
2023-01-20T06:16:27.249Z,11.52
2023-01-20T06:18:55.141Z,12.57
2023-01-20T06:21:23.024Z,12.98
2023-01-20T06:23:52.254Z,11.35
2023-01-20T06:26:20.109Z,13.77
2023-01-20T06:28:48.011Z,11.43
2023-01-20T06:31:17.348Z,11.10
2023-01-20T06:33:45.359Z,14.65
2023-01-20T06:36:16.961Z,43.58
2023-01-20T06:38:48.442Z,51.15
2023-01-20T06:41:18.303Z,81.05
2023-01-20T06:43:46.231Z,85.68
2023-01-20T06:46:15.034Z,65.47
2023-01-20T06:48:43.111Z,72.85
2023-01-20T06:51:11.965Z,92.28
2023-01-20T06:53:39.905Z,73.50
2023-01-20T06:56:08.390Z,65.43
2023-01-20T06:58:37.609Z,51.55
2023-01-20T07:01:06.655Z,63.38
2023-01-20T07:03:34.548Z,56.58
2023-01-20T07:06:03.271Z,63.17
2023-01-20T07:08:31.182Z,66.70
2023-01-20T07:10:59.098Z,59.08
2023-01-20T07:13:27.028Z,66.10
2023-01-20T07:15:56.438Z,60.88
2023-01-20T07:18:24.441Z,77.03
2023-01-20T07:20:55.046Z,55.72
2023-01-20T07:23:23.017Z,65.93
2023-01-20T07:25:58.300Z,54.00
2023-01-20T07:28:26.198Z,48.25
2023-01-20T07:30:54.285Z,44.55
2023-01-20T07:33:23.804Z,46.03
2023-01-20T07:35:54.982Z,41.70
2023-01-20T07:38:22.852Z,36.83
2023-01-20T07:40:50.768Z,37.72
2023-01-20T07:43:18.641Z,39.85
2023-01-20T07:45:46.630Z,32.38
2023-01-20T07:48:14.624Z,42.47
2023-01-20T07:50:43.927Z,36.88
2023-01-20T07:53:11.774Z,38.00
2023-01-20T07:55:39.636Z,30.63
2023-01-20T07:58:07.519Z,32.83
2023-01-20T08:00:35.393Z,33.78
2023-01-20T08:03:03.291Z,37.45
2023-01-20T08:05:32.785Z,30.70
2023-01-20T08:08:01.982Z,29.52
2023-01-20T08:10:29.889Z,34.00
2023-01-20T08:12:58.768Z,28.08
2023-01-20T08:15:26.731Z,24.75
2023-01-20T08:17:54.986Z,25.52
2023-01-20T08:20:22.900Z,28.70
2023-01-20T08:22:50.798Z,26.23
2023-01-20T08:25:20.149Z,29.42
2023-01-20T08:27:49.977Z,30.27
2023-01-20T08:30:18.288Z,25.25
2023-01-20T08:32:46.228Z,26.08
2023-01-20T08:35:14.570Z,25.60
2023-01-20T08:37:42.593Z,25.77
2023-01-20T08:40:11.485Z,21.73
2023-01-20T08:42:40.839Z,28.48
2023-01-20T08:45:09.673Z,19.75
2023-01-20T08:47:37.681Z,25.73
2023-01-20T08:50:06.918Z,19.90
2023-01-20T08:52:35.391Z,24.13
2023-01-20T08:55:03.256Z,46.55
2023-01-20T08:57:31.198Z,118.50
2023-01-20T09:00:00.428Z,102.78
2023-01-20T09:02:28.362Z,95.05
2023-01-20T09:04:56.286Z,88.57
2023-01-20T09:07:24.153Z,104.22
2023-01-20T09:09:52.049Z,86.88
2023-01-20T09:12:19.953Z,84.30
2023-01-20T09:14:48.194Z,86.57
2023-01-20T09:17:17.415Z,75.68
2023-01-20T09:19:45.307Z,71.57
2023-01-20T09:22:13.357Z,66.90
2023-01-20T09:24:41.869Z,54.38
2023-01-20T09:27:09.750Z,45.83
2023-01-20T09:29:37.715Z,54.13
2023-01-20T09:32:05.860Z,54.78
2023-01-20T09:34:35.299Z,53.70
2023-01-20T09:37:17.298Z,54.20
2023-01-20T09:40:02.674Z,47.25
2023-01-20T09:42:51.056Z,43.10
2023-01-20T09:45:24.943Z,37.03
2023-01-20T09:47:53.422Z,44.53
2023-01-20T09:50:47.308Z,45.13
2023-01-20T09:53:26.176Z,39.95
2023-01-20T09:55:54.885Z,40.38
2023-01-20T09:58:27.164Z,31.52
2023-01-20T10:00:56.762Z,38.08
2023-01-20T10:03:29.299Z,36.53
2023-01-20T10:05:58.672Z,36.03
2023-01-20T10:08:29.941Z,33.60
2023-01-20T10:10:59.001Z,31.27
2023-01-20T10:13:29.158Z,31.38
2023-01-20T10:15:57.457Z,30.98
2023-01-20T10:18:28.490Z,38.30
2023-01-20T10:20:59.808Z,32.65
2023-01-20T10:23:30.290Z,35.65
2023-01-20T10:26:01.553Z,28.08
2023-01-20T10:28:30.016Z,32.55
2023-01-20T10:30:58.628Z,23.77
2023-01-20T10:33:28.957Z,28.10
2023-01-20T10:35:58.825Z,28.52
2023-01-20T10:38:30.799Z,31.58
2023-01-20T10:41:01.295Z,28.50
2023-01-20T10:43:29.275Z,33.72
2023-01-20T10:46:02.726Z,29.33
2023-01-20T10:48:40.513Z,26.13
2023-01-20T10:51:11.459Z,27.27
2023-01-20T10:53:44.385Z,22.23
2023-01-20T10:56:23.633Z,20.80
2023-01-20T10:58:51.495Z,24.45
2023-01-20T11:01:19.942Z,26.75
2023-01-20T11:03:48.982Z,21.73
2023-01-20T11:06:20.721Z,20.55
2023-01-20T11:08:48.724Z,22.05
2023-01-20T11:11:17.828Z,22.30
2023-01-20T11:13:45.701Z,23.70
2023-01-20T11:16:15.482Z,23.98
2023-01-20T11:18:43.388Z,19.30
2023-01-20T11:21:13.064Z,20.33
2023-01-20T11:23:43.162Z,20.73
2023-01-20T11:26:19.909Z,21.25
2023-01-20T11:28:50.669Z,18.42
2023-01-20T11:31:18.651Z,26.25
2023-01-20T11:33:57.602Z,21.45
2023-01-20T11:36:26.845Z,16.42
2023-01-20T11:38:56.678Z,20.88
2023-01-20T11:41:25.394Z,19.48
2023-01-20T11:43:55.344Z,21.83
2023-01-20T11:46:28.700Z,21.60
2023-01-20T11:49:13.631Z,17.45
2023-01-20T11:51:46.257Z,17.17
2023-01-20T11:54:17.861Z,13.85
2023-01-20T11:56:46.346Z,17.23
2023-01-20T11:59:32.933Z,18.10
2023-01-20T12:02:01.892Z,16.33
2023-01-20T12:04:56.393Z,15.48
2023-01-20T12:07:26.847Z,13.55
2023-01-20T12:09:56.827Z,18.38
2023-01-20T12:12:28.856Z,15.88
2023-01-20T12:15:00.364Z,15.80
2023-01-20T12:17:36.943Z,16.05
2023-01-20T12:20:15.528Z,15.52
2023-01-20T12:22:47.070Z,14.48
2023-01-20T12:25:21.621Z,15.30
2023-01-20T12:27:51.390Z,13.82
2023-01-20T12:30:33.221Z,15.43
2023-01-20T12:33:01.135Z,11.50
2023-01-20T12:35:30.101Z,12.13
2023-01-20T12:37:58.393Z,11.75
2023-01-20T12:40:33.678Z,15.43
2023-01-20T12:43:26.933Z,14.13
2023-01-20T12:46:00.966Z,12.27
2023-01-20T12:48:35.026Z,16.13
2023-01-20T12:51:10.508Z,13.88
2023-01-20T12:53:50.338Z,11.57
2023-01-20T12:56:23.310Z,11.40
2023-01-20T12:58:56.529Z,11.63
2023-01-20T13:01:42.774Z,13.80
2023-01-20T13:04:49.648Z,12.25
2023-01-20T13:07:36.149Z,13.10
2023-01-20T13:10:25.871Z,12.98
2023-01-20T13:12:57.150Z,11.68
2023-01-20T13:15:28.176Z,13.30
2023-01-20T13:18:17.281Z,14.10
2023-01-20T13:20:46.523Z,12.63
2023-01-20T13:23:15.964Z,11.60
2023-01-20T13:25:44.045Z,11.52
2023-01-20T13:28:17.525Z,10.45
2023-01-20T13:30:47.964Z,12.55
2023-01-20T13:33:18.328Z,10.32
2023-01-20T13:35:47.691Z,10.27
2023-01-20T13:38:20.504Z,10.95
2023-01-20T13:40:50.293Z,11.70
2023-01-20T13:43:57.988Z,11.27
2023-01-20T13:46:48.895Z,13.20
2023-01-20T13:49:30.716Z,11.85
2023-01-20T13:51:58.641Z,11.88
2023-01-20T13:54:46.241Z,9.93
2023-01-20T13:57:41.113Z,9.88
2023-01-20T14:00:19.053Z,11.07
2023-01-20T14:02:49.253Z,11.07
2023-01-20T14:05:28.909Z,10.40
2023-01-20T14:07:57.361Z,11.15
2023-01-20T14:10:28.223Z,9.50
2023-01-20T14:12:56.079Z,10.32
2023-01-20T14:15:36.350Z,9.90
2023-01-20T14:18:05.755Z,10.85
2023-01-20T14:20:33.624Z,10.05
2023-01-20T14:23:26.721Z,9.85
2023-01-20T14:26:01.712Z,9.02
2023-01-20T14:28:29.729Z,9.38
2023-01-20T14:31:16.988Z,11.48
2023-01-20T14:33:54.491Z,8.88
2023-01-20T14:36:23.322Z,10.07
2023-01-20T14:38:57.979Z,9.95
2023-01-20T14:41:28.357Z,11.90
2023-01-20T14:43:56.436Z,12.13
2023-01-20T14:46:24.550Z,11.80
2023-01-20T14:48:54.182Z,13.48
2023-01-20T14:51:22.454Z,11.15
2023-01-20T14:54:24.012Z,11.63
2023-01-20T14:56:51.939Z,9.70
2023-01-20T14:59:20.440Z,11.32
2023-01-20T15:01:52.941Z,10.93
2023-01-20T15:04:22.256Z,9.60
2023-01-20T15:06:54.416Z,8.70
2023-01-20T15:09:27.981Z,8.32
2023-01-20T15:12:32.660Z,9.00
2023-01-20T15:15:10.245Z,10.35
2023-01-20T15:17:38.209Z,8.43
2023-01-20T15:20:28.878Z,9.65
2023-01-20T15:22:56.749Z,10.07
2023-01-20T15:25:24.885Z,12.00
2023-01-20T15:27:53.712Z,14.50
2023-01-20T15:30:24.184Z,10.70
2023-01-20T15:32:52.419Z,7.45
2023-01-20T15:35:22.860Z,10.23
2023-01-20T15:37:52.155Z,12.90
2023-01-20T15:40:21.195Z,9.90
2023-01-20T15:42:49.495Z,11.38
2023-01-20T15:45:17.731Z,8.73
2023-01-20T15:47:46.329Z,9.27
2023-01-20T15:50:17.062Z,9.20
2023-01-20T15:52:45.176Z,11.48
2023-01-20T15:55:14.997Z,9.27
2023-01-20T15:57:43.287Z,9.10
2023-01-20T16:00:19.538Z,8.60
2023-01-20T16:02:47.504Z,10.55
2023-01-20T16:05:17.605Z,9.80
2023-01-20T16:07:47.489Z,9.32
2023-01-20T16:10:18.676Z,7.20
2023-01-20T16:12:46.872Z,9.43
2023-01-20T16:15:16.138Z,10.52
2023-01-20T16:17:44.134Z,7.35
2023-01-20T16:20:19.912Z,8.63
2023-01-20T16:22:47.845Z,7.63
2023-01-20T16:25:17.504Z,7.97
2023-01-20T16:27:45.459Z,8.15
2023-01-20T16:30:16.080Z,10.63
2023-01-20T16:32:46.174Z,7.30
2023-01-20T16:35:14.499Z,8.95
2023-01-20T16:37:42.369Z,10.23
2023-01-20T16:40:12.978Z,7.75
2023-01-20T16:42:42.190Z,9.93
2023-01-20T16:45:23.202Z,9.65
2023-01-20T16:47:51.337Z,8.98
2023-01-20T16:50:19.447Z,8.75
2023-01-20T16:52:47.320Z,11.98
2023-01-20T16:55:15.298Z,10.48
2023-01-20T16:57:45.139Z,8.80
2023-01-20T17:00:15.610Z,6.72
2023-01-20T17:02:45.546Z,8.48
2023-01-20T17:05:13.545Z,8.73
2023-01-20T17:07:41.461Z,11.30
2023-01-20T17:10:10.772Z,8.88
2023-01-20T17:12:38.718Z,9.45
2023-01-20T17:15:08.994Z,7.15
2023-01-20T17:17:38.583Z,8.27
2023-01-20T17:20:10.202Z,9.30
2023-01-20T17:22:39.192Z,8.35
2023-01-20T17:25:08.211Z,9.02
2023-01-20T17:27:36.178Z,7.82
2023-01-20T17:30:04.327Z,8.38
2023-01-20T17:32:33.604Z,8.40
2023-01-20T17:35:01.589Z,7.82
2023-01-20T17:37:29.533Z,8.45
2023-01-20T17:39:57.425Z,14.10
2023-01-20T17:42:25.306Z,9.52
2023-01-20T17:44:53.204Z,11.32
2023-01-20T17:47:21.132Z,12.40
2023-01-20T17:49:50.391Z,9.43
2023-01-20T17:52:20.112Z,14.80
2023-01-20T17:54:48.203Z,11.05
2023-01-20T17:57:16.985Z,11.55
2023-01-20T17:59:44.860Z,10.73
2023-01-20T18:02:12.941Z,12.30
2023-01-20T18:04:40.882Z,17.42
2023-01-20T18:07:10.072Z,9.15
2023-01-20T18:09:37.959Z,9.50
2023-01-20T18:12:06.483Z,12.73
2023-01-20T18:14:34.382Z,9.05
2023-01-20T18:17:02.375Z,9.07
2023-01-20T18:19:30.326Z,7.35
2023-01-20T18:22:00.520Z,10.77
2023-01-20T18:24:29.812Z,8.23
2023-01-20T18:26:58.026Z,10.88
2023-01-20T18:29:26.111Z,8.00
2023-01-20T18:31:54.656Z,8.38
2023-01-20T18:34:22.624Z,8.43
2023-01-20T18:36:50.643Z,9.63
2023-01-20T18:39:19.689Z,7.50
2023-01-20T18:41:49.042Z,8.30
2023-01-20T18:44:17.044Z,8.38
2023-01-20T18:46:44.985Z,7.45
2023-01-20T18:49:13.607Z,7.53
2023-01-20T18:51:42.356Z,9.07
2023-01-20T18:54:12.449Z,7.07
2023-01-20T18:56:40.713Z,7.95
2023-01-20T18:59:10.337Z,7.38
2023-01-20T19:01:39.774Z,7.32
2023-01-20T19:04:08.532Z,7.38
2023-01-20T19:06:37.763Z,7.32
2023-01-20T19:09:05.835Z,11.27
2023-01-20T19:11:35.807Z,10.40
2023-01-20T19:14:04.009Z,9.70
2023-01-20T19:16:34.375Z,13.98
2023-01-20T19:19:03.035Z,12.23
2023-01-20T19:21:32.489Z,17.95
2023-01-20T19:24:01.505Z,19.85
2023-01-20T19:26:29.774Z,15.32
2023-01-20T19:29:00.010Z,15.10
2023-01-20T19:31:28.039Z,13.27
2023-01-20T19:33:57.438Z,15.70
2023-01-20T19:36:25.618Z,14.32
2023-01-20T19:38:53.602Z,10.48
2023-01-20T19:41:22.982Z,11.43
2023-01-20T19:43:54.834Z,11.00
2023-01-20T19:46:24.571Z,12.95
2023-01-20T19:48:52.549Z,11.40
2023-01-20T19:51:21.859Z,10.65
2023-01-20T19:53:50.137Z,12.98
2023-01-20T19:56:18.776Z,9.75
2023-01-20T19:58:47.703Z,8.80
2023-01-20T20:01:16.788Z,10.43
2023-01-20T20:03:45.102Z,13.70
2023-01-20T20:06:24.327Z,10.82
2023-01-20T20:08:52.505Z,7.53
2023-01-20T20:11:20.583Z,12.65
2023-01-20T20:13:48.464Z,8.30
2023-01-20T20:16:16.575Z,8.75
2023-01-20T20:18:44.456Z,8.23
2023-01-20T20:21:12.680Z,9.15
2023-01-20T20:23:42.027Z,12.93
2023-01-20T20:26:12.007Z,9.07
2023-01-20T20:28:39.920Z,9.77
2023-01-20T20:31:08.247Z,19.88
2023-01-20T20:33:36.243Z,10.90
2023-01-20T20:36:07.409Z,11.80
2023-01-20T20:38:36.586Z,10.63
2023-01-20T20:41:07.752Z,10.25
2023-01-20T20:43:35.662Z,8.00
2023-01-20T20:46:03.916Z,7.65
2023-01-20T20:48:33.358Z,9.63
2023-01-20T20:51:06.084Z,7.28
2023-01-20T20:53:34.399Z,9.63
2023-01-20T20:56:04.105Z,9.57
2023-01-20T20:58:33.413Z,11.43
2023-01-20T21:01:02.791Z,8.85
2023-01-20T21:03:30.700Z,8.65
2023-01-20T21:05:58.586Z,10.68
2023-01-20T21:08:26.548Z,9.35
2023-01-20T21:10:54.635Z,10.15
2023-01-20T21:13:23.426Z,6.60
2023-01-20T21:16:00.532Z,12.25
2023-01-20T21:18:28.556Z,8.63
2023-01-20T21:20:57.705Z,8.32
2023-01-20T21:23:25.608Z,8.23
2023-01-20T21:25:53.799Z,6.65
2023-01-20T21:28:21.659Z,5.85
2023-01-20T21:30:49.593Z,10.20
2023-01-20T21:33:18.856Z,6.50
2023-01-20T21:35:46.782Z,6.82
2023-01-20T21:38:14.763Z,8.02
2023-01-20T21:40:59.602Z,5.15
2023-01-20T21:43:45.646Z,10.40
2023-01-20T21:46:13.680Z,6.32
2023-01-20T21:49:00.630Z,6.20
2023-01-20T21:51:46.030Z,8.90
2023-01-20T21:54:13.907Z,8.95
2023-01-20T21:56:41.776Z,7.07
2023-01-20T21:59:09.736Z,5.93
2023-01-20T22:01:37.792Z,6.10
2023-01-20T22:04:07.065Z,7.13
2023-01-20T22:06:34.986Z,5.32
2023-01-20T22:09:02.876Z,5.88
2023-01-20T22:11:30.783Z,7.85
2023-01-20T22:13:58.710Z,9.63
2023-01-20T22:16:26.712Z,6.60
2023-01-20T22:18:54.893Z,8.18
2023-01-20T22:21:25.475Z,7.20
2023-01-20T22:23:53.615Z,5.43
2023-01-20T22:26:21.869Z,6.55
2023-01-20T22:28:49.743Z,8.90
2023-01-20T22:31:20.053Z,5.07
2023-01-20T22:33:50.860Z,5.45
2023-01-20T22:36:18.723Z,4.90
2023-01-20T22:38:49.027Z,8.48
2023-01-20T22:41:17.137Z,6.13
2023-01-20T22:43:45.070Z,5.15
2023-01-20T22:46:13.725Z,4.90
2023-01-20T22:48:41.635Z,5.97
2023-01-20T22:51:10.832Z,4.82
2023-01-20T22:53:39.180Z,5.22
2023-01-20T22:56:10.455Z,5.15
2023-01-20T22:58:38.409Z,8.95
2023-01-20T23:01:06.608Z,4.65
2023-01-20T23:03:34.473Z,5.13
2023-01-20T23:06:02.327Z,6.03
2023-01-20T23:08:30.603Z,4.65
2023-01-20T23:11:00.181Z,4.40
2023-01-20T23:13:29.621Z,6.57
2023-01-20T23:15:57.500Z,5.53
2023-01-20T23:18:25.542Z,4.05
2023-01-20T23:20:54.303Z,6.03
2023-01-20T23:23:22.488Z,3.22
2023-01-20T23:25:50.457Z,5.85
2023-01-20T23:28:18.374Z,6.32
2023-01-20T23:30:47.562Z,7.55
2023-01-20T23:33:15.507Z,5.13
2023-01-20T23:35:43.417Z,4.32
2023-01-20T23:38:11.391Z,5.25
2023-01-20T23:40:39.270Z,4.60
2023-01-20T23:43:07.213Z,7.45
2023-01-20T23:45:35.133Z,4.38
2023-01-20T23:48:04.473Z,7.05
2023-01-20T23:50:32.345Z,4.40
2023-01-20T23:53:00.229Z,5.65
2023-01-20T23:55:28.126Z,4.18
2023-01-20T23:57:56.437Z,6.72
